首页
METAR-TAF:

METAR-TAF

机场 :

Columbus Municipal Airport

哥伦布, 內布拉斯加州, 美国

纬度: 41-27N, 经度: 097-20W, 海拔: 440米

当前天气观测

该预报发布于42分钟前的22:56 UTC
风速3节,风向东转东南
温度 7°C
湿度 57%
气压 1026 hPa
能見度: 16.1公里
天空无云

METAR: KOLU 142256Z AUTO 12003KT 10SM CLR 07/M01 A3030 RMK AO2 SLP276 T00721011

时间: 17:38 (23:38 UTC)


TAF: 丢失

超过4000个机场的气象观测和天气预报(METAR&TAF报告)。

可查询的气象台以黄色和红色小点在地图上表示。

将鼠标移到小点上方,可查看气象台名称。

然后点击查看天气观测和预报。

如需切换地图:点击带黑十字的绿色按钮放大地图;点击带横线的绿色按钮缩小地图;或者点击绿色箭头查看邻近地区的地图。


METAR-TAF: